createdAt,value
2019-04-25T00:01:28.416Z,1.37
2019-04-25T00:03:56.937Z,1.53
2019-04-25T00:06:26.087Z,1.60
2019-04-25T00:08:54.618Z,1.60
2019-04-25T00:11:23.603Z,1.70
2019-04-25T00:13:52.037Z,1.60
2019-04-25T00:16:22.383Z,1.30
2019-04-25T00:18:51.721Z,1.53
2019-04-25T00:21:25.068Z,1.40
2019-04-25T00:23:55.201Z,1.33
2019-04-25T00:26:37.353Z,1.30
2019-04-25T00:29:07.754Z,1.60
2019-04-25T00:31:39.344Z,1.60
2019-04-25T00:34:09.495Z,1.50
2019-04-25T00:36:39.102Z,1.40
2019-04-25T00:39:07.836Z,1.40
2019-04-25T00:41:36.417Z,1.50
2019-04-25T00:44:05.747Z,1.70
2019-04-25T00:46:34.281Z,1.40
2019-04-25T00:49:02.720Z,1.60
2019-04-25T00:51:31.813Z,1.70
2019-04-25T00:54:02.069Z,1.50
2019-04-25T00:56:32.189Z,1.70
2019-04-25T00:59:02.508Z,1.50
2019-04-25T01:01:35.597Z,2.30
2019-04-25T01:04:04.261Z,2.07
2019-04-25T01:06:32.706Z,1.90
2019-04-25T01:09:01.519Z,1.77
2019-04-25T01:11:31.371Z,1.80
2019-04-25T01:13:59.956Z,1.87
2019-04-25T01:16:28.426Z,1.67
2019-04-25T01:18:57.767Z,2.67
2019-04-25T01:21:26.307Z,1.83
2019-04-25T01:23:55.701Z,1.97
2019-04-25T01:26:26.190Z,1.90
2019-04-25T01:28:54.936Z,2.30
2019-04-25T01:31:25.212Z,1.63
2019-04-25T01:34:14.736Z,1.80
2019-04-25T01:36:44.820Z,1.80
2019-04-25T01:39:27.122Z,1.90
2019-04-25T01:42:00.156Z,1.90
2019-04-25T01:44:31.066Z,1.70
2019-04-25T01:46:59.503Z,1.30
2019-04-25T01:49:28.051Z,1.70
2019-04-25T01:51:57.437Z,1.67
2019-04-25T01:54:27.026Z,1.80
2019-04-25T01:56:56.220Z,1.63
2019-04-25T01:59:24.817Z,2.00
2019-04-25T02:01:54.576Z,1.77
2019-04-25T02:04:23.546Z,1.80
2019-04-25T02:06:53.672Z,2.03
2019-04-25T02:09:23.575Z,1.97
2019-04-25T02:11:57.657Z,2.10
2019-04-25T02:14:27.648Z,1.70
2019-04-25T02:16:57.142Z,1.90
2019-04-25T02:19:26.037Z,1.80
2019-04-25T02:21:55.398Z,1.50
2019-04-25T02:24:24.778Z,1.70
2019-04-25T02:26:55.217Z,2.00
2019-04-25T02:29:23.573Z,1.67
2019-04-25T02:31:54.674Z,1.73
2019-04-25T02:34:24.803Z,2.03
2019-04-25T02:36:55.542Z,1.80
2019-04-25T02:39:24.552Z,1.43
2019-04-25T02:41:56.028Z,1.70
2019-04-25T02:44:24.805Z,1.53
2019-04-25T02:46:58.733Z,1.70
2019-04-25T02:49:40.355Z,1.90
2019-04-25T02:52:25.531Z,1.60
2019-04-25T02:54:55.776Z,1.70
2019-04-25T02:57:25.148Z,2.07
2019-04-25T02:59:54.825Z,1.80
2019-04-25T03:02:24.894Z,1.97
2019-04-25T03:04:54.522Z,1.80
2019-04-25T03:07:24.571Z,1.87
2019-04-25T03:09:54.776Z,2.30
2019-04-25T03:12:32.503Z,2.03
2019-04-25T03:14:55.149Z,2.37
2019-04-25T03:17:24.589Z,2.10
2019-04-25T03:20:11.193Z,2.43
2019-04-25T03:22:37.553Z,2.30
2019-04-25T03:25:11.020Z,2.30
2019-04-25T03:27:37.225Z,2.40
2019-04-25T03:30:11.781Z,2.30
2019-04-25T03:32:38.325Z,2.40
2019-04-25T03:35:07.234Z,2.30
2019-04-25T03:37:35.751Z,2.80
2019-04-25T03:40:06.629Z,2.37
2019-04-25T03:42:36.137Z,2.40
2019-04-25T03:45:06.096Z,2.50
2019-04-25T03:47:34.625Z,2.47
2019-04-25T03:50:05.862Z,2.73
2019-04-25T03:52:34.943Z,2.10
2019-04-25T03:55:05.138Z,2.60
2019-04-25T03:57:34.705Z,2.50
2019-04-25T04:00:06.205Z,2.17
2019-04-25T04:02:34.569Z,2.50
2019-04-25T04:05:06.022Z,2.20
2019-04-25T04:07:33.934Z,2.27
2019-04-25T04:10:04.542Z,2.37
2019-04-25T04:12:33.952Z,2.13
2019-04-25T04:15:04.684Z,2.20
2019-04-25T04:17:37.567Z,2.10
2019-04-25T04:20:11.123Z,2.40
2019-04-25T04:22:47.345Z,2.47
2019-04-25T04:25:17.423Z,2.77
2019-04-25T04:27:45.894Z,2.60
2019-04-25T04:30:16.492Z,2.60
2019-04-25T04:32:45.026Z,2.30
2019-04-25T04:35:14.743Z,2.57
2019-04-25T04:37:43.818Z,2.20
2019-04-25T04:40:12.414Z,2.20
2019-04-25T04:42:40.854Z,2.40
2019-04-25T04:45:10.177Z,2.23
2019-04-25T04:47:38.841Z,2.07
2019-04-25T04:50:08.911Z,1.80
2019-04-25T04:52:37.462Z,2.10
2019-04-25T04:55:09.774Z,2.27
2019-04-25T04:57:37.730Z,2.07
2019-04-25T05:00:07.677Z,1.90
2019-04-25T05:02:46.603Z,1.77
2019-04-25T05:05:31.434Z,1.90
2019-04-25T05:08:01.611Z,1.80
2019-04-25T05:10:30.067Z,1.90
2019-04-25T05:12:58.647Z,1.93
2019-04-25T05:15:27.188Z,1.67
2019-04-25T05:17:55.769Z,1.93
2019-04-25T05:20:24.388Z,2.00
2019-04-25T05:22:53.328Z,1.90
2019-04-25T05:25:24.304Z,1.67
2019-04-25T05:28:01.980Z,1.93
2019-04-25T05:30:26.554Z,2.10
2019-04-25T05:32:55.309Z,1.80
2019-04-25T05:35:24.387Z,2.00
2019-04-25T05:37:53.927Z,1.90
2019-04-25T05:40:24.106Z,1.70
2019-04-25T05:42:54.334Z,1.77
2019-04-25T05:45:27.177Z,1.87
2019-04-25T05:47:55.650Z,1.80
2019-04-25T05:50:25.108Z,1.80
2019-04-25T05:52:54.210Z,1.70
2019-04-25T05:55:24.171Z,1.83
2019-04-25T05:57:53.640Z,2.03
2019-04-25T06:00:24.704Z,1.80
2019-04-25T06:02:53.377Z,1.83
2019-04-25T06:05:24.768Z,1.83
2019-04-25T06:07:52.254Z,1.90
2019-04-25T06:10:28.411Z,2.00
2019-04-25T06:13:04.471Z,1.87
2019-04-25T06:15:33.403Z,1.93
2019-04-25T06:18:14.005Z,1.67
2019-04-25T06:20:44.296Z,1.90
2019-04-25T06:23:14.461Z,1.70
2019-04-25T06:25:43.973Z,1.60
2019-04-25T06:28:14.166Z,1.63
2019-04-25T06:30:44.252Z,1.90
2019-04-25T06:33:14.553Z,2.10
2019-04-25T06:35:44.734Z,2.03
2019-04-25T06:38:13.494Z,1.50
2019-04-25T06:40:43.595Z,2.37
2019-04-25T06:43:13.436Z,1.60
2019-04-25T06:45:55.225Z,2.20
2019-04-25T06:48:27.524Z,1.70
2019-04-25T06:50:56.070Z,1.70
2019-04-25T06:53:25.774Z,1.50
2019-04-25T06:55:54.696Z,1.90
2019-04-25T06:58:25.610Z,1.63
2019-04-25T07:00:58.932Z,1.70
2019-04-25T07:03:25.147Z,1.67
2019-04-25T07:05:53.808Z,2.00
2019-04-25T07:08:23.774Z,2.13
2019-04-25T07:10:55.121Z,2.40
2019-04-25T07:13:24.699Z,1.77
2019-04-25T07:15:53.402Z,1.80
2019-04-25T07:18:23.543Z,1.73
2019-04-25T07:20:53.366Z,1.87
2019-04-25T07:23:23.622Z,1.57
2019-04-25T07:25:54.271Z,1.40
2019-04-25T07:28:29.776Z,1.60
2019-04-25T07:31:17.154Z,1.87
2019-04-25T07:33:47.273Z,1.70
2019-04-25T07:36:15.713Z,1.57
2019-04-25T07:38:44.178Z,1.60
2019-04-25T07:41:14.627Z,1.23
2019-04-25T07:43:43.360Z,1.30
2019-04-25T07:46:13.374Z,1.60
2019-04-25T07:48:43.693Z,1.50
2019-04-25T07:51:15.890Z,1.37
2019-04-25T07:53:43.627Z,1.50
2019-04-25T07:56:14.088Z,1.35
2019-04-25T07:58:50.457Z,1.15
2019-04-25T08:01:14.193Z,1.82
2019-04-25T08:03:43.882Z,1.37
2019-04-25T08:06:13.772Z,1.42
2019-04-25T08:08:43.636Z,1.40
2019-04-25T08:11:14.062Z,1.60
2019-04-25T08:13:50.572Z,1.40
2019-04-25T08:16:23.542Z,1.60
2019-04-25T08:18:53.955Z,1.40
2019-04-25T08:21:23.904Z,1.32
2019-04-25T08:23:53.328Z,1.70
2019-04-25T08:26:22.133Z,1.98
2019-04-25T08:28:55.718Z,1.35
2019-04-25T08:31:21.394Z,1.77
2019-04-25T08:33:49.835Z,1.57
2019-04-25T08:36:18.353Z,1.02
2019-04-25T08:38:46.816Z,1.20
2019-04-25T08:41:15.261Z,1.20
2019-04-25T08:43:45.420Z,1.27
2019-04-25T08:46:14.149Z,1.55
2019-04-25T08:49:05.926Z,1.80
2019-04-25T08:51:40.097Z,1.27
2019-04-25T08:54:16.187Z,1.47
2019-04-25T08:56:44.709Z,1.30
2019-04-25T08:59:40.064Z,1.65
2019-04-25T09:02:20.047Z,1.50
2019-04-25T09:04:50.134Z,1.37
2019-04-25T09:07:18.599Z,1.10
2019-04-25T09:09:47.065Z,1.40
2019-04-25T09:12:15.510Z,1.20
2019-04-25T09:14:46.292Z,1.20
2019-04-25T09:17:15.098Z,1.20
2019-04-25T09:19:44.432Z,1.37
2019-04-25T09:22:13.798Z,1.50
2019-04-25T09:24:44.111Z,1.12
2019-04-25T09:27:13.436Z,1.00
2019-04-25T09:29:46.219Z,1.10
2019-04-25T09:32:15.120Z,1.20
2019-04-25T09:34:43.780Z,1.17
2019-04-25T09:37:14.082Z,0.90
2019-04-25T09:40:00.856Z,1.32
2019-04-25T09:42:29.558Z,0.85
2019-04-25T09:45:08.431Z,1.00
2019-04-25T09:47:39.201Z,0.80
2019-04-25T09:50:10.735Z,0.62
2019-04-25T09:52:40.232Z,0.55
2019-04-25T09:55:28.574Z,0.90
2019-04-25T09:57:58.675Z,0.93
2019-04-25T10:00:38.713Z,0.80
2019-04-25T10:03:07.329Z,1.00
2019-04-25T10:05:36.858Z,1.20
2019-04-25T10:08:05.729Z,1.30
2019-04-25T10:10:34.314Z,0.88
2019-04-25T10:13:04.848Z,0.72
2019-04-25T10:15:58.941Z,0.80
2019-04-25T10:18:27.486Z,1.20
2019-04-25T10:20:56.205Z,1.15
2019-04-25T10:23:24.721Z,1.02
2019-04-25T10:25:53.853Z,1.02
2019-04-25T10:28:23.411Z,1.20
2019-04-25T10:30:53.067Z,1.30
2019-04-25T10:33:24.354Z,1.70
2019-04-25T10:35:58.868Z,1.87
2019-04-25T10:38:26.403Z,0.95
2019-04-25T10:40:55.208Z,1.40
2019-04-25T10:43:24.056Z,1.10
2019-04-25T10:45:53.384Z,0.90
2019-04-25T10:48:24.035Z,0.88
2019-04-25T10:50:53.889Z,2.10
2019-04-25T10:53:23.242Z,0.98
2019-04-25T10:55:53.134Z,1.20
2019-04-25T10:58:21.686Z,0.80
2019-04-25T11:00:52.838Z,0.93
2019-04-25T11:03:24.137Z,1.20
2019-04-25T11:05:54.423Z,0.95
2019-04-25T11:08:24.539Z,1.02
2019-04-25T11:10:54.855Z,0.98
2019-04-25T11:13:23.562Z,0.90
2019-04-25T11:15:52.282Z,1.07
2019-04-25T11:18:20.847Z,1.35
2019-04-25T11:20:50.378Z,1.20
2019-04-25T11:23:19.048Z,0.98
2019-04-25T11:25:47.795Z,1.00
2019-04-25T11:28:16.601Z,1.57
2019-04-25T11:30:47.313Z,1.25
2019-04-25T11:33:16.490Z,1.22
2019-04-25T11:35:47.465Z,1.40
2019-04-25T11:38:16.821Z,1.10
2019-04-25T11:40:49.696Z,1.35
2019-04-25T11:43:17.159Z,1.25
2019-04-25T11:45:46.051Z,1.30
2019-04-25T11:48:15.299Z,1.57
2019-04-25T11:50:48.172Z,1.65
2019-04-25T11:53:14.255Z,1.32
2019-04-25T11:55:43.575Z,1.20
2019-04-25T11:58:12.114Z,1.42
2019-04-25T12:00:40.646Z,1.20
2019-04-25T12:03:09.287Z,1.32
2019-04-25T12:05:37.752Z,1.50
2019-04-25T12:08:07.157Z,1.80
2019-04-25T12:10:36.168Z,1.92
2019-04-25T12:13:04.704Z,1.20
2019-04-25T12:15:33.437Z,1.80
2019-04-25T12:18:01.957Z,1.25
2019-04-25T12:20:30.661Z,1.00
2019-04-25T12:23:08.312Z,0.90
2019-04-25T12:25:29.344Z,1.02
2019-04-25T12:27:57.832Z,1.30
2019-04-25T12:30:37.275Z,1.32
2019-04-25T12:32:56.925Z,1.35
2019-04-25T12:35:25.509Z,1.37
2019-04-25T12:37:55.153Z,1.65
2019-04-25T12:40:24.285Z,1.40
2019-04-25T12:42:52.889Z,1.65
2019-04-25T12:45:25.698Z,1.02
2019-04-25T12:47:58.847Z,1.25
2019-04-25T12:50:26.080Z,1.42
2019-04-25T12:52:55.043Z,1.37
2019-04-25T12:55:24.554Z,1.00
2019-04-25T12:57:54.917Z,1.50
2019-04-25T13:00:26.931Z,1.80
2019-04-25T13:02:56.470Z,1.40
2019-04-25T13:05:25.243Z,1.27
2019-04-25T13:07:56.681Z,1.45
2019-04-25T13:10:23.941Z,1.02
2019-04-25T13:12:55.218Z,0.80
2019-04-25T13:15:25.231Z,1.00
2019-04-25T13:17:53.641Z,1.42
2019-04-25T13:20:22.318Z,1.82
2019-04-25T13:22:50.864Z,1.10
2019-04-25T13:25:21.186Z,1.50
2019-04-25T13:27:51.351Z,1.50
2019-04-25T13:30:37.966Z,1.25
2019-04-25T13:33:10.880Z,1.15
2019-04-25T13:35:41.061Z,1.30
2019-04-25T13:38:09.526Z,1.50
2019-04-25T13:40:37.994Z,1.67
2019-04-25T13:43:06.507Z,1.35
2019-04-25T13:45:35.663Z,1.30
2019-04-25T13:48:04.894Z,1.30
2019-04-25T13:50:34.400Z,1.75
2019-04-25T13:53:03.338Z,1.75
2019-04-25T13:55:32.209Z,1.17
2019-04-25T13:58:00.846Z,1.30
2019-04-25T14:00:30.201Z,1.10
2019-04-25T14:02:58.794Z,1.62
2019-04-25T14:05:28.847Z,1.60
2019-04-25T14:07:57.330Z,1.47
2019-04-25T14:10:26.491Z,1.20
2019-04-25T14:12:55.246Z,1.57
2019-04-25T14:15:25.437Z,1.50
2019-04-25T14:18:13.673Z,1.30
2019-04-25T14:20:49.717Z,1.50
2019-04-25T14:23:18.228Z,1.40
2019-04-25T14:25:46.772Z,1.27
2019-04-25T14:28:16.276Z,1.40
2019-04-25T14:30:44.810Z,1.40
2019-04-25T14:33:13.638Z,1.05
2019-04-25T14:35:42.222Z,1.45
2019-04-25T14:38:10.710Z,1.12
2019-04-25T14:40:39.214Z,1.57
2019-04-25T14:43:07.835Z,1.07
2019-04-25T14:45:44.415Z,1.20
2019-04-25T14:48:06.457Z,1.15
2019-04-25T14:50:34.887Z,1.50
2019-04-25T14:53:03.350Z,1.40
2019-04-25T14:55:41.998Z,1.20
2019-04-25T14:58:15.095Z,1.20
2019-04-25T15:00:46.160Z,1.27
2019-04-25T15:03:14.658Z,1.20
2019-04-25T15:05:43.542Z,1.15
2019-04-25T15:08:12.287Z,1.02
2019-04-25T15:10:40.718Z,1.15
2019-04-25T15:13:09.795Z,1.25
2019-04-25T15:15:38.332Z,1.90
2019-04-25T15:18:06.831Z,1.50
2019-04-25T15:20:35.429Z,1.20
2019-04-25T15:23:04.251Z,1.40
2019-04-25T15:25:32.730Z,1.35
2019-04-25T15:28:01.225Z,1.30
2019-04-25T15:30:31.319Z,1.17
2019-04-25T15:33:00.891Z,1.30
2019-04-25T15:35:31.008Z,3.80
2019-04-25T15:38:01.076Z,1.05
2019-04-25T15:40:31.246Z,1.02
2019-04-25T15:43:17.879Z,1.00
2019-04-25T15:45:53.900Z,1.20
2019-04-25T15:48:25.206Z,1.27
2019-04-25T15:50:55.478Z,1.70
2019-04-25T15:53:25.665Z,1.40
2019-04-25T15:55:54.336Z,2.02
2019-04-25T15:58:25.344Z,1.75
2019-04-25T16:00:55.469Z,1.30
2019-04-25T16:03:24.156Z,1.27
2019-04-25T16:05:52.596Z,1.10
2019-04-25T16:08:21.067Z,1.20
2019-04-25T16:10:50.660Z,0.85
2019-04-25T16:13:19.866Z,1.02
2019-04-25T16:15:48.339Z,1.17
2019-04-25T16:18:16.887Z,1.50
2019-04-25T16:20:45.369Z,1.10
2019-04-25T16:23:15.368Z,1.20
2019-04-25T16:25:43.844Z,1.20
2019-04-25T16:28:12.291Z,0.98
2019-04-25T16:30:40.902Z,1.30
2019-04-25T16:33:10.180Z,1.30
2019-04-25T16:35:40.406Z,1.30
2019-04-25T16:38:09.625Z,1.10
2019-04-25T16:40:40.078Z,1.50
2019-04-25T16:43:10.193Z,0.93
2019-04-25T16:45:39.870Z,1.30
2019-04-25T16:48:27.682Z,1.30
2019-04-25T16:50:56.190Z,1.30
2019-04-25T16:53:24.683Z,1.72
2019-04-25T16:55:58.645Z,1.57
2019-04-25T16:58:27.128Z,1.60
2019-04-25T17:00:57.354Z,1.02
2019-04-25T17:03:26.388Z,1.02
2019-04-25T17:05:54.911Z,1.52
2019-04-25T17:08:23.537Z,2.12
2019-04-25T17:10:52.031Z,1.30
2019-04-25T17:13:20.614Z,1.15
2019-04-25T17:16:00.014Z,1.20
2019-04-25T17:18:46.805Z,1.32
2019-04-25T17:21:15.865Z,1.22
2019-04-25T17:23:44.310Z,1.25
2019-04-25T17:26:13.532Z,1.40
2019-04-25T17:28:45.187Z,1.00
2019-04-25T17:31:27.971Z,1.20
2019-04-25T17:34:07.295Z,1.47
2019-04-25T17:36:39.437Z,1.30
2019-04-25T17:39:20.091Z,1.40
2019-04-25T17:41:48.576Z,1.45
2019-04-25T17:44:17.033Z,1.32
2019-04-25T17:46:45.505Z,1.17
2019-04-25T17:49:14.055Z,1.15
2019-04-25T17:51:42.902Z,1.57
2019-04-25T17:54:11.338Z,1.25
2019-04-25T17:56:43.147Z,1.20
2019-04-25T17:59:11.666Z,1.37
2019-04-25T18:01:40.315Z,1.05
2019-04-25T18:04:08.864Z,1.32
2019-04-25T18:06:38.022Z,1.35
2019-04-25T18:09:12.703Z,1.22
2019-04-25T18:11:42.201Z,1.22
2019-04-25T18:14:10.800Z,1.50
2019-04-25T18:16:42.439Z,1.57
2019-04-25T18:19:12.830Z,1.60
2019-04-25T18:21:41.302Z,1.30
2019-04-25T18:24:18.197Z,1.05
2019-04-25T18:26:48.272Z,1.20
2019-04-25T18:29:21.189Z,1.40
2019-04-25T18:31:49.635Z,1.30
2019-04-25T18:34:19.771Z,1.35
2019-04-25T18:36:52.750Z,1.37
2019-04-25T18:39:22.858Z,1.35
2019-04-25T18:41:52.977Z,1.32
2019-04-25T18:44:21.461Z,1.82
2019-04-25T18:46:52.547Z,3.30
2019-04-25T18:49:20.997Z,2.65
2019-04-25T18:51:57.582Z,1.70
2019-04-25T18:54:30.430Z,1.98
2019-04-25T18:57:00.577Z,1.90
2019-04-25T18:59:39.821Z,1.57
2019-04-25T19:02:26.226Z,2.00
2019-04-25T19:05:17.414Z,1.72
2019-04-25T19:07:45.305Z,1.62
2019-04-25T19:10:14.535Z,1.32
2019-04-25T19:12:43.195Z,2.02
2019-04-25T19:15:12.252Z,1.85
2019-04-25T19:17:41.378Z,2.15
2019-04-25T19:20:10.149Z,1.42
2019-04-25T19:22:40.129Z,1.45
2019-04-25T19:25:12.454Z,1.30
2019-04-25T19:27:42.025Z,1.42
2019-04-25T19:30:13.181Z,1.40
2019-04-25T19:32:42.169Z,1.70
2019-04-25T19:35:11.702Z,1.62
2019-04-25T19:37:40.588Z,1.50
2019-04-25T19:40:17.183Z,1.17
2019-04-25T19:42:51.113Z,1.10
2019-04-25T19:45:19.796Z,1.40
2019-04-25T19:47:49.223Z,1.30
2019-04-25T19:50:19.222Z,1.47
2019-04-25T19:52:47.748Z,1.10
2019-04-25T19:55:16.386Z,1.22
2019-04-25T19:57:46.551Z,1.22
2019-04-25T20:00:16.241Z,1.20
2019-04-25T20:02:52.998Z,1.75
2019-04-25T20:05:26.179Z,1.37
2019-04-25T20:08:03.489Z,1.70
2019-04-25T20:10:35.243Z,1.20
2019-04-25T20:13:03.772Z,1.87
2019-04-25T20:15:32.251Z,1.50
2019-04-25T20:18:01.097Z,1.60
2019-04-25T20:20:29.596Z,1.98
2019-04-25T20:22:58.489Z,1.50
2019-04-25T20:25:26.962Z,2.45
2019-04-25T20:27:57.409Z,1.70
2019-04-25T20:30:27.614Z,1.57
2019-04-25T20:32:56.198Z,1.70
2019-04-25T20:35:24.948Z,1.55
2019-04-25T20:37:53.527Z,1.60
2019-04-25T20:40:21.989Z,1.80
2019-04-25T20:42:50.591Z,1.65
2019-04-25T20:45:19.559Z,1.52
2019-04-25T20:47:48.062Z,1.65
2019-04-25T20:50:16.916Z,1.40
2019-04-25T20:52:46.319Z,1.40
2019-04-25T20:55:16.027Z,1.40
2019-04-25T20:57:44.547Z,1.20
2019-04-25T21:00:17.590Z,1.35
2019-04-25T21:02:46.051Z,0.90
2019-04-25T21:05:16.147Z,1.70
2019-04-25T21:07:44.607Z,1.00
2019-04-25T21:10:16.556Z,1.27
2019-04-25T21:12:45.526Z,1.50
2019-04-25T21:15:21.929Z,1.20
2019-04-25T21:17:52.308Z,1.50
2019-04-25T21:20:24.155Z,1.40
2019-04-25T21:22:53.583Z,0.93
2019-04-25T21:25:22.307Z,1.67
2019-04-25T21:27:52.561Z,1.60
2019-04-25T21:30:21.120Z,1.40
2019-04-25T21:32:53.518Z,1.23
2019-04-25T21:35:23.074Z,1.40
2019-04-25T21:37:53.547Z,1.50
2019-04-25T21:40:33.780Z,1.30
2019-04-25T21:43:17.452Z,1.50
2019-04-25T21:45:52.815Z,1.70
2019-04-25T21:48:22.445Z,1.40
2019-04-25T21:50:51.350Z,1.30
2019-04-25T21:53:20.969Z,1.30
2019-04-25T21:55:50.320Z,1.80
2019-04-25T21:58:19.123Z,1.43
2019-04-25T22:00:58.243Z,1.43
2019-04-25T22:03:27.315Z,1.17
2019-04-25T22:05:56.838Z,1.33
2019-04-25T22:08:25.592Z,1.67
2019-04-25T22:10:55.797Z,1.60
2019-04-25T22:13:24.828Z,1.30
2019-04-25T22:15:53.666Z,0.90
2019-04-25T22:18:22.508Z,1.33
2019-04-25T22:20:51.098Z,1.20
2019-04-25T22:23:20.053Z,1.40
2019-04-25T22:25:48.781Z,1.50
2019-04-25T22:28:17.674Z,1.60
2019-04-25T22:30:48.086Z,1.80
2019-04-25T22:33:18.184Z,1.30
2019-04-25T22:35:48.347Z,1.30
2019-04-25T22:38:17.120Z,1.13
2019-04-25T22:40:45.633Z,1.50
2019-04-25T22:43:14.986Z,1.10
2019-04-25T22:45:43.767Z,1.10
2019-04-25T22:48:12.248Z,1.37
2019-04-25T22:50:41.075Z,1.30
2019-04-25T22:53:21.087Z,1.40
2019-04-25T22:55:39.723Z,1.40
2019-04-25T22:58:08.167Z,1.50
2019-04-25T23:00:38.846Z,1.30
2019-04-25T23:03:09.373Z,1.33
2019-04-25T23:05:48.494Z,1.50
2019-04-25T23:08:17.307Z,1.60
2019-04-25T23:10:46.077Z,1.50
2019-04-25T23:13:14.864Z,1.30
2019-04-25T23:15:43.443Z,1.90
2019-04-25T23:18:13.409Z,1.60
2019-04-25T23:20:42.107Z,1.80
2019-04-25T23:23:11.725Z,1.70
2019-04-25T23:25:50.844Z,1.57
2019-04-25T23:28:21.504Z,1.50
2019-04-25T23:30:57.867Z,1.60
2019-04-25T23:33:26.486Z,1.60
2019-04-25T23:35:55.030Z,1.50
2019-04-25T23:38:23.546Z,1.40
2019-04-25T23:40:52.022Z,1.60
2019-04-25T23:43:20.745Z,1.70
2019-04-25T23:45:49.282Z,1.40
2019-04-25T23:48:18.093Z,1.50
2019-04-25T23:50:46.554Z,1.80
2019-04-25T23:53:15.106Z,1.57
2019-04-25T23:55:43.558Z,1.83
2019-04-25T23:58:12.070Z,1.40
